Delta Virtual Airport Information Service

Ontario International Airport

ICAO: KONT Country: United States
Latitude: 34.056 Longitude: -117.601
Latest Arrival : UPS785 (KELP-KONT) Latest Departure : UPS888 (A) (KONT-KABQ)


WX CaptureLIVE
Data provided by noaa.gov | Fetched at 00:22:33

METAR : KONT 270553Z VRB06KT 10SM SCT100 BKN250 08/01 A3014 RMK AO2 SLP211 T00780006 10111 20072 51021

TAF : KONT 270520Z 2706/2812 VRB05KT P6SM FEW060 FEW100 FM270900 06007KT P6SM SCT050 BKN100 FM271900 VRB05KT P6SM SCT040 BKN100 FM272200 27008KT P6SM SCT040 BKN100


Runway Data for KONT
Data provided by openaviationdata.com

Runway ID Mag Var Hdg Length Elevation Surface ILS Freq ILS Id ILS Slope
08L 14 75° 12185 ft 944 ft Asphalt 109.7 IAOD 3
08R 14 75° 10187 ft 944 ft Concrete -- -- --
26L 14 255° 10187 ft 944 ft Concrete 111.35 ITWO 3
26R 14 255° 12185 ft 944 ft Asphalt 109.7 IONT 3

Ontario International Airport, United States
Use only for reference purposes



Not for navigational purposes.